Time;durP1;ratioP1;P1;durP2;ratioP2;P2;SDS_P1;SDS_P2;PMS_P1;PMS_P2;Temp;Humidity;BMP_temperature;BMP_pressure;BME280_temperature;BME280_humidity;BME280_pressure;Samples;Min_cycle;Max_cycle;Signal;HPM_P1;HPM_P2
2023/05/25 00:00:15;;;;;;;9.02;3.92;;;;;;;9.40;61.13;96378.28;2098390;28;20139;-58
2023/05/25 00:01:17;;;;;;;9.32;3.63;;;;;;;9.39;60.85;96377.44;2098780;28;20147;-58
2023/05/25 00:02:18;;;;;;;11.23;4.15;;;;;;;9.30;61.10;96372.56;2098113;28;20068;-58
2023/05/25 00:03:19;;;;;;;10.88;3.53;;;;;;;9.37;60.81;96375.81;2099073;28;20345;-58
2023/05/25 00:04:20;;;;;;;10.98;4.13;;;;;;;9.41;61.54;96380.84;2098251;28;20048;-58
2023/05/25 00:05:26;;;;;;;9.45;4.10;;;;;;;9.40;61.46;96379.13;2098448;28;20060;-58
2023/05/25 00:06:28;;;;;;;15.00;4.45;;;;;;;9.37;61.29;96374.06;2099053;28;20048;-58
2023/05/25 00:07:29;;;;;;;13.15;4.40;;;;;;;9.42;61.78;96379.09;2089378;28;20053;-58
2023/05/25 00:08:30;;;;;;;15.32;4.38;;;;;;;9.39;61.44;96369.66;2089895;28;20056;-58
2023/05/25 00:09:32;;;;;;;12.07;3.85;;;;;;;9.37;60.98;96371.47;2098763;28;20053;-58
2023/05/25 00:10:33;;;;;;;14.02;4.20;;;;;;;9.38;61.55;96374.91;2098727;28;20056;-58
2023/05/25 00:11:34;;;;;;;10.95;3.75;;;;;;;9.35;61.64;96368.06;2098311;28;20404;-58
2023/05/25 00:12:36;;;;;;;11.85;4.18;;;;;;;9.35;61.71;96364.66;2098355;28;20064;-58
2023/05/25 00:13:38;;;;;;;10.60;4.28;;;;;;;9.39;61.47;96364.47;2098378;28;20052;-58
2023/05/25 00:14:39;;;;;;;8.63;3.78;;;;;;;9.40;61.34;96368.75;2098260;28;20053;-58
2023/05/25 00:15:40;;;;;;;8.57;3.95;;;;;;;9.39;62.05;96366.25;2098192;28;20076;-58
2023/05/25 00:16:41;;;;;;;7.85;3.80;;;;;;;9.39;61.90;96368.84;2099260;28;20448;-58
2023/05/25 00:17:42;;;;;;;10.38;4.05;;;;;;;9.41;61.62;96369.59;2099015;28;20052;-58
2023/05/25 00:18:44;;;;;;;10.77;4.07;;;;;;;9.39;62.19;96367.06;2099061;28;20357;-58
2023/05/25 00:19:45;;;;;;;10.85;4.25;;;;;;;9.42;62.31;96366.97;2098387;28;20175;-59
2023/05/25 00:20:46;;;;;;;12.48;4.22;;;;;;;9.41;61.92;96369.59;2098402;28;20057;-58
2023/05/25 00:21:47;;;;;;;14.82;4.45;;;;;;;9.39;62.15;96374.84;2098381;28;20056;-58
2023/05/25 00:22:48;;;;;;;16.05;4.30;;;;;;;9.39;62.43;96372.25;2098270;28;20399;-58
2023/05/25 00:23:49;;;;;;;9.20;4.40;;;;;;;9.38;62.06;96375.75;2099099;28;20040;-57
2023/05/25 00:24:50;;;;;;;10.77;4.00;;;;;;;9.38;62.29;96369.72;2097940;28;20044;-58
2023/05/25 00:25:52;;;;;;;9.98;4.53;;;;;;;9.38;62.78;96380.09;2098140;28;20259;-57
2023/05/25 00:26:53;;;;;;;11.52;4.10;;;;;;;9.36;62.26;96371.53;2098875;28;20424;-58
2023/05/25 00:27:54;;;;;;;13.15;4.22;;;;;;;9.36;62.33;96371.53;2089423;28;20053;-58
2023/05/25 00:28:55;;;;;;;7.75;3.97;;;;;;;9.25;62.36;96356.38;2089550;28;20049;-58
2023/05/25 00:29:56;;;;;;;10.02;4.35;;;;;;;9.33;61.96;96366.44;2098949;28;20040;-58
2023/05/25 00:30:57;;;;;;;9.68;4.05;;;;;;;9.32;62.74;96367.34;2098910;28;20056;-58
2023/05/25 00:31:59;;;;;;;11.43;4.10;;;;;;;9.22;62.01;96359.94;2098156;28;20045;-58
2023/05/25 00:33:00;;;;;;;11.63;3.83;;;;;;;9.30;62.39;96369.97;2089030;28;20064;-58
2023/05/25 00:34:01;;;;;;;9.95;3.75;;;;;;;9.34;62.50;96373.34;2090019;28;20057;-58
2023/05/25 00:35:03;;;;;;;13.43;3.60;;;;;;;9.19;62.60;96354.81;2089772;28;20078;-58
2023/05/25 00:36:05;;;;;;;11.23;4.70;;;;;;;9.32;62.69;96375.13;2089670;28;20052;-58
2023/05/25 00:37:06;;;;;;;13.68;4.25;;;;;;;9.31;63.05;96374.28;2098889;28;20043;-58
2023/05/25 00:38:15;;;;;;;10.93;4.60;;;;;;;9.30;63.58;96377.75;2089281;28;20420;-58
2023/05/25 00:39:17;;;;;;;12.00;4.43;;;;;;;9.22;63.02;96359.06;2090776;28;20065;-58
2023/05/25 00:40:18;;;;;;;8.85;4.25;;;;;;;9.27;63.45;96370.09;2098172;28;20392;-58
2023/05/25 00:41:19;;;;;;;11.45;4.15;;;;;;;9.26;63.36;96363.25;2081027;28;20068;-58
2023/05/25 00:42:21;;;;;;;14.23;4.82;;;;;;;9.36;63.75;96387.09;2073653;28;20045;-58
2023/05/25 00:43:22;;;;;;;10.98;4.75;;;;;;;9.34;64.26;96383.69;2089942;28;20056;-58
2023/05/25 00:44:23;;;;;;;9.57;4.60;;;;;;;9.34;63.60;96386.28;2089730;28;20496;-58
2023/05/25 00:45:24;;;;;;;11.38;4.25;;;;;;;9.33;63.68;96382.00;2089459;28;20064;-58
2023/05/25 00:46:25;;;;;;;12.38;5.10;;;;;;;9.34;63.87;96381.94;2098030;28;20079;-58
2023/05/25 00:47:26;;;;;;;9.73;4.10;;;;;;;9.26;63.68;96381.38;2089281;28;20492;-58
2023/05/25 00:48:27;;;;;;;11.75;4.10;;;;;;;9.16;63.65;96367.91;2089181;28;20060;-58
2023/05/25 00:49:30;;;;;;;11.82;4.32;;;;;;;9.16;64.12;96367.06;2098222;28;20044;-58
2023/05/25 00:50:41;;;;;;;12.50;4.30;;;;;;;9.15;64.29;96365.38;2089342;28;20075;-58
2023/05/25 00:51:45;;;;;;;12.95;4.60;;;;;;;9.23;64.06;96384.09;2091319;28;20049;-58
2023/05/25 00:52:48;;;;;;;10.57;4.05;;;;;;;9.16;64.21;96387.78;2097971;28;20055;-58
2023/05/25 00:53:49;;;;;;;12.43;4.38;;;;;;;9.08;64.51;96366.47;2089102;28;20047;-58
2023/05/25 00:54:51;;;;;;;12.88;4.65;;;;;;;9.14;64.16;96384.41;2089605;28;20041;-58
2023/05/25 00:56:20;;;;;;;10.70;4.22;;;;;;;9.15;64.28;96386.09;2088957;28;20141;-58
2023/05/25 00:57:22;;;;;;;11.63;4.50;;;;;;;9.17;64.00;96374.78;2090570;28;20048;-58
2023/05/25 00:58:23;;;;;;;12.13;3.80;;;;;;;9.13;64.57;96380.13;2089245;28;20091;-58
2023/05/25 00:59:34;;;;;;;14.20;4.30;;;;;;;9.12;64.56;96378.44;2081883;28;20049;-58
2023/05/25 01:00:35;;;;;;;13.88;4.70;;;;;;;9.12;64.83;96381.03;2074567;28;20430;-58
2023/05/25 01:01:38;;;;;;;11.43;4.50;;;;;;;9.02;64.30;96360.63;2073618;28;20062;-58
2023/05/25 01:02:41;;;;;;;10.60;4.18;;;;;;;9.07;64.73;96370.00;2073147;28;20054;-58
2023/05/25 01:03:44;;;;;;;11.98;4.15;;;;;;;9.13;64.20;96380.97;2065414;28;20050;-58
2023/05/25 01:04:48;;;;;;;10.60;4.43;;;;;;;9.08;64.69;96371.66;2081596;28;20105;-58
2023/05/25 01:05:49;;;;;;;12.02;4.50;;;;;;;9.12;64.54;96376.69;2089090;28;20064;-58
2023/05/25 01:06:51;;;;;;;13.95;4.40;;;;;;;9.15;65.08;96386.94;2081303;28;20060;-58
2023/05/25 01:07:52;;;;;;;10.75;4.45;;;;;;;9.13;64.90;96378.38;2073269;28;20449;-58
2023/05/25 01:08:59;;;;;;;12.90;4.30;;;;;;;9.13;64.88;96382.72;2065120;28;20077;-58
2023/05/25 01:10:01;;;;;;;12.25;4.75;;;;;;;9.05;64.65;96370.03;2066094;28;20046;-58
2023/05/25 01:11:02;;;;;;;11.35;5.25;;;;;;;9.02;65.16;96364.97;2073151;28;20046;-58
2023/05/25 01:12:04;;;;;;;13.90;4.47;;;;;;;9.10;64.85;96380.25;2081419;28;20144;-58
2023/05/25 01:13:05;;;;;;;12.93;4.45;;;;;;;9.10;65.27;96377.66;2080985;28;20060;-58
2023/05/25 01:14:06;;;;;;;13.68;5.05;;;;;;;9.08;65.58;96377.69;2065168;28;20081;-58
2023/05/25 01:15:07;;;;;;;13.38;5.07;;;;;;;9.12;65.35;96375.84;2056943;28;20050;-58
2023/05/25 01:16:09;;;;;;;13.73;5.32;;;;;;;8.99;65.63;96365.06;2073108;28;20065;-58
2023/05/25 01:17:10;;;;;;;12.98;5.03;;;;;;;9.10;65.85;96377.66;2089408;28;20041;-58
2023/05/25 01:18:15;;;;;;;16.27;4.90;;;;;;;9.02;65.66;96362.38;2089451;28;20060;-58
2023/05/25 01:19:17;;;;;;;10.93;4.90;;;;;;;9.06;65.70;96376.88;2088841;28;20052;-58
2023/05/25 01:20:18;;;;;;;10.90;4.22;;;;;;;9.01;65.58;96358.94;2089149;28;20504;-58
2023/05/25 01:21:40;;;;;;;13.88;4.63;;;;;;;9.09;65.51;96370.75;2089155;28;20064;-58
2023/05/25 01:22:52;;;;;;;10.68;4.72;;;;;;;9.12;64.96;96376.69;2075454;28;20121;-58
2023/05/25 01:24:08;;;;;;;13.38;4.68;;;;;;;9.09;65.88;96373.34;2084626;28;20053;-58
2023/05/25 01:25:13;;;;;;;14.20;4.97;;;;;;;9.07;65.63;96378.59;2081060;28;20082;-58
2023/05/25 01:26:15;;;;;;;12.98;4.93;;;;;;;9.09;65.77;96373.34;2082896;28;20057;-58
2023/05/25 01:27:37;;;;;;;9.93;4.35;;;;;;;9.11;66.06;96371.56;2097594;28;20059;-58
2023/05/25 01:28:40;;;;;;;10.93;4.70;;;;;;;9.05;65.71;96365.69;2089493;28;20051;-58
2023/05/25 01:29:43;;;;;;;13.43;4.80;;;;;;;8.94;65.86;96354.03;2073147;28;20098;-58
2023/05/25 01:30:45;;;;;;;11.15;4.55;;;;;;;8.96;65.43;96347.88;2073515;28;20347;-58
2023/05/25 01:31:47;;;;;;;14.93;4.88;;;;;;;8.96;66.42;96368.63;2080745;28;20501;-58
2023/05/25 01:32:48;;;;;;;13.02;5.28;;;;;;;8.93;66.36;96371.31;2080388;28;20117;-58
2023/05/25 01:33:50;;;;;;;18.20;5.45;;;;;;;8.94;66.41;96362.63;2081185;28;20041;-58
2023/05/25 01:34:51;;;;;;;17.80;5.53;;;;;;;8.96;66.91;96368.63;2072755;28;20049;-58
2023/05/25 01:35:52;;;;;;;11.75;4.65;;;;;;;8.95;66.15;96366.91;2072772;28;20048;-59
2023/05/25 01:36:53;;;;;;;12.75;4.68;;;;;;;8.94;66.27;96369.56;2081008;28;20056;-58
2023/05/25 01:37:54;;;;;;;12.23;5.10;;;;;;;8.94;66.19;96372.16;2081367;28;20401;-58
2023/05/25 01:38:56;;;;;;;13.15;5.18;;;;;;;8.83;66.70;96357.81;2080542;28;20049;-58
2023/05/25 01:39:57;;;;;;;12.98;5.07;;;;;;;8.94;66.85;96366.97;2088950;28;20056;-58
2023/05/25 01:40:59;;;;;;;10.25;4.32;;;;;;;8.92;66.90;96367.00;2097753;28;20040;-58
2023/05/25 01:42:01;;;;;;;10.57;4.72;;;;;;;8.81;67.45;96364.78;2088821;28;20049;-58
2023/05/25 01:43:02;;;;;;;10.13;4.63;;;;;;;8.92;66.88;96369.59;2080591;28;20102;-58
2023/05/25 01:44:03;;;;;;;11.35;4.63;;;;;;;8.91;67.54;96377.44;2088623;28;20059;-58
2023/05/25 01:45:06;;;;;;;13.02;4.65;;;;;;;8.91;67.35;96374.84;2089465;28;20056;-58
2023/05/25 01:46:24;;;;;;;11.50;5.22;;;;;;;8.94;67.28;96372.16;2089449;28;20048;-58
2023/05/25 01:47:36;;;;;;;18.85;5.20;;;;;;;8.95;66.90;96372.09;2088886;28;20367;-58
2023/05/25 01:48:52;;;;;;;15.10;5.03;;;;;;;8.91;67.49;96380.03;2066028;28;20498;-58
2023/05/25 01:50:11;;;;;;;14.27;5.20;;;;;;;8.88;67.33;96372.38;2069062;28;20050;-58
2023/05/25 01:51:18;;;;;;;13.70;4.82;;;;;;;8.80;67.13;96372.63;2083158;28;20056;-58
2023/05/25 01:52:24;;;;;;;17.52;5.13;;;;;;;8.84;67.88;96376.78;2073959;28;20057;-58
2023/05/25 01:53:28;;;;;;;10.05;5.03;;;;;;;8.83;67.51;96373.38;2066309;28;20054;-58
2023/05/25 01:54:35;;;;;;;13.48;5.03;;;;;;;8.78;67.92;96366.66;2065754;28;20061;-58
2023/05/25 01:55:41;;;;;;;14.32;5.47;;;;;;;8.85;67.66;96375.91;2074447;28;20472;-58
2023/05/25 01:56:45;;;;;;;13.48;5.22;;;;;;;8.81;67.86;96377.75;2081429;28;20080;-58
2023/05/25 01:57:49;;;;;;;13.68;5.93;;;;;;;8.73;67.86;96365.97;2073524;28;20062;-58
2023/05/25 01:58:50;;;;;;;12.77;4.57;;;;;;;8.83;67.90;96377.72;2065273;28;20046;-58
2023/05/25 01:59:51;;;;;;;13.70;5.47;;;;;;;8.82;68.22;96371.69;2056831;28;20065;-58
2023/05/25 02:00:52;;;;;;;15.20;5.13;;;;;;;8.80;68.02;96377.81;2064665;28;20046;-58
2023/05/25 02:01:54;;;;;;;14.85;5.22;;;;;;;8.83;68.45;96382.88;2080647;28;20493;-58
2023/05/25 02:02:55;;;;;;;13.85;4.70;;;;;;;8.81;68.20;96372.56;2080189;28;20053;-58
2023/05/25 02:03:56;;;;;;;12.80;5.15;;;;;;;8.84;68.00;96380.22;2056384;28;20050;-58
2023/05/25 02:04:57;;;;;;;17.20;5.30;;;;;;;8.83;68.10;96372.53;2064288;28;20089;-58
2023/05/25 02:05:58;;;;;;;13.18;4.95;;;;;;;8.81;68.39;96380.34;2064398;28;20426;-58
2023/05/25 02:06:59;;;;;;;11.40;5.00;;;;;;;8.72;68.53;96366.88;2072501;28;20049;-58
2023/05/25 02:08:00;;;;;;;14.90;5.45;;;;;;;8.70;68.96;96371.25;2081019;28;20045;-58
2023/05/25 02:09:04;;;;;;;14.52;5.88;;;;;;;8.72;69.00;96375.47;2081000;28;20076;-58
2023/05/25 02:10:06;;;;;;;15.60;5.93;;;;;;;8.70;68.55;96371.25;2080034;28;20421;-58
2023/05/25 02:11:07;;;;;;;12.93;5.20;;;;;;;8.64;69.14;96368.88;2089107;28;20037;-58
2023/05/25 02:12:08;;;;;;;10.95;4.95;;;;;;;8.57;69.11;96369.06;2088898;28;20057;-58
2023/05/25 02:13:09;;;;;;;12.20;5.32;;;;;;;8.43;69.80;96353.16;2097569;28;20462;-58
2023/05/25 02:14:10;;;;;;;12.32;5.20;;;;;;;8.46;70.25;96367.72;2097555;28;20056;-57
2023/05/25 02:15:12;;;;;;;12.30;5.18;;;;;;;8.44;69.69;96365.19;2088944;28;20048;-58
2023/05/25 02:16:13;;;;;;;14.70;5.53;;;;;;;8.39;69.90;96373.13;2080455;28;20652;-58
2023/05/25 02:17:18;;;;;;;13.32;5.80;;;;;;;8.37;70.47;96372.28;2080770;28;20057;-58
2023/05/25 02:18:19;;;;;;;16.42;4.90;;;;;;;8.37;70.94;96374.88;2089063;28;20052;-57
2023/05/25 02:19:21;;;;;;;12.93;5.50;;;;;;;8.29;71.15;96374.28;2097302;28;20056;-58
2023/05/25 02:20:22;;;;;;;12.38;4.93;;;;;;;8.28;71.13;96374.31;2088433;28;20080;-59
2023/05/25 02:21:23;;;;;;;15.02;5.60;;;;;;;8.25;71.48;96377.00;2089360;28;20051;-58
2023/05/25 02:22:26;;;;;;;20.70;6.18;;;;;;;8.20;71.34;96376.31;2097464;28;20056;-58
2023/05/25 02:23:27;;;;;;;12.65;6.13;;;;;;;8.20;71.53;96382.31;2097224;28;20056;-58
2023/05/25 02:24:28;;;;;;;14.68;6.30;;;;;;;8.17;71.39;96378.09;2097754;28;20047;-58
2023/05/25 02:25:29;;;;;;;15.52;5.88;;;;;;;7.99;72.10;96342.44;2100791;28;20449;-58
2023/05/25 02:26:30;;;;;;;12.15;5.03;;;;;;;8.09;71.95;96353.34;2097676;28;20049;-58
2023/05/25 02:27:32;;;;;;;12.70;4.72;;;;;;;8.11;72.58;96367.09;2088980;28;20056;-58
2023/05/25 02:28:33;;;;;;;14.07;5.88;;;;;;;8.03;72.38;96362.16;2088492;28;20072;-58
2023/05/25 02:29:34;;;;;;;17.70;5.72;;;;;;;8.06;72.24;96371.56;2097865;28;20377;-58
2023/05/25 02:30:35;;;;;;;15.82;6.05;;;;;;;8.04;72.61;96371.59;2097189;28;20057;-58
2023/05/25 02:31:37;;;;;;;12.27;5.40;;;;;;;8.01;72.47;96371.69;2097982;28;20040;-58
2023/05/25 02:32:38;;;;;;;13.30;5.72;;;;;;;7.98;72.90;96371.81;2088158;28;20136;-58
2023/05/25 02:33:39;;;;;;;15.23;5.78;;;;;;;8.01;72.90;96371.69;2080453;28;20065;-58
2023/05/25 02:34:40;;;;;;;15.40;6.88;;;;;;;8.03;72.97;96367.34;2080538;28;20054;-58
2023/05/25 02:35:41;;;;;;;13.90;5.60;;;;;;;8.06;72.98;96364.66;2080939;28;20068;-58
2023/05/25 02:36:45;;;;;;;15.82;5.13;;;;;;;8.11;73.01;96362.75;2089067;28;20176;-58
2023/05/25 02:37:46;;;;;;;16.92;5.97;;;;;;;8.25;72.48;96364.06;2088666;28;20391;-58
2023/05/25 02:38:48;;;;;;;14.25;5.75;;;;;;;8.28;72.65;96363.97;2088298;28;20500;-58
2023/05/25 02:39:50;;;;;;;17.42;5.72;;;;;;;8.30;72.40;96367.34;2081000;28;20509;-58
2023/05/25 02:40:51;;;;;;;16.45;6.00;;;;;;;8.35;72.17;96360.28;2080486;28;20057;-58
2023/05/25 02:41:54;;;;;;;12.52;5.68;;;;;;;8.44;71.93;96356.56;2080974;28;20069;-58
2023/05/25 02:42:55;;;;;;;10.23;5.45;;;;;;;8.46;71.13;96357.38;2080823;28;20049;-58
2023/05/25 02:43:58;;;;;;;13.05;5.30;;;;;;;8.47;71.33;96365.06;2080365;28;20415;-58
2023/05/25 02:45:00;;;;;;;17.02;5.95;;;;;;;8.48;71.17;96361.63;2080755;28;20033;-58
2023/05/25 02:46:02;;;;;;;14.32;5.75;;;;;;;8.50;71.25;96365.00;2079950;28;20049;-58
2023/05/25 02:47:03;;;;;;;17.10;6.47;;;;;;;8.48;71.64;96365.94;2089108;28;20053;-58
2023/05/25 02:48:04;;;;;;;11.57;5.30;;;;;;;8.47;71.51;96367.66;2080650;28;20056;-58
2023/05/25 02:49:07;;;;;;;14.00;5.72;;;;;;;8.46;71.78;96362.56;2088770;28;20052;-58
2023/05/25 02:50:10;;;;;;;17.83;5.93;;;;;;;8.41;72.18;96370.47;2080359;28;20056;-58
2023/05/25 02:51:16;;;;;;;12.90;5.97;;;;;;;8.35;72.80;96366.31;2081603;28;20049;-58
2023/05/25 02:52:17;;;;;;;13.30;5.63;;;;;;;8.33;72.64;96373.25;2080624;28;20045;-58
2023/05/25 02:53:18;;;;;;;18.35;6.93;;;;;;;8.36;72.31;96372.31;2080568;28;20056;-58
2023/05/25 02:54:20;;;;;;;13.45;6.07;;;;;;;8.32;72.25;96370.75;2080473;28;20064;-58
2023/05/25 02:55:21;;;;;;;13.65;5.15;;;;;;;8.18;72.53;96366.03;2080332;28;20080;-58
2023/05/25 02:56:22;;;;;;;13.20;5.90;;;;;;;8.21;72.88;96384.03;2080193;28;20063;-58
2023/05/25 02:57:24;;;;;;;16.08;5.75;;;;;;;8.17;72.78;96372.91;2072666;28;20053;-58
2023/05/25 02:58:26;;;;;;;16.30;5.75;;;;;;;8.10;72.76;96363.66;2079987;28;20057;-58
2023/05/25 02:59:40;;;;;;;11.52;5.82;;;;;;;8.12;73.18;96379.13;2082255;28;20049;-58
2023/05/25 03:00:43;;;;;;;14.63;5.88;;;;;;;8.10;73.75;96381.78;2088366;28;20095;-59
2023/05/25 03:01:44;;;;;;;14.48;6.20;;;;;;;8.07;74.03;96373.25;2097233;28;20064;-57
2023/05/25 03:02:47;;;;;;;15.88;5.95;;;;;;;7.92;74.12;96367.66;2088107;28;20516;-58
2023/05/25 03:03:51;;;;;;;17.52;6.30;;;;;;;7.93;74.30;96379.69;2080572;28;20046;-58
2023/05/25 03:04:53;;;;;;;10.88;5.97;;;;;;;7.91;74.54;96386.66;2080151;28;20057;-58
2023/05/25 03:05:55;;;;;;;12.10;6.18;;;;;;;7.89;74.81;96388.44;2079796;28;20057;-58
2023/05/25 03:06:57;;;;;;;14.82;6.30;;;;;;;7.77;74.40;96375.03;2089029;28;20052;-58
2023/05/25 03:07:58;;;;;;;14.70;6.63;;;;;;;7.76;74.99;96391.47;2088276;28;20056;-58
2023/05/25 03:08:59;;;;;;;12.18;5.82;;;;;;;7.72;75.58;96386.38;2088421;28;20440;-58
2023/05/25 03:10:00;;;;;;;13.10;5.93;;;;;;;7.72;75.43;96380.34;2097727;28;20128;-58
2023/05/25 03:11:01;;;;;;;15.75;6.57;;;;;;;7.77;75.78;96393.13;2088183;28;20049;-58
2023/05/25 03:12:02;;;;;;;15.43;6.93;;;;;;;7.74;75.54;96386.31;2080854;28;20057;-58
2023/05/25 03:13:04;;;;;;;15.13;6.03;;;;;;;7.71;75.75;96384.66;2080299;28;20049;-58
2023/05/25 03:14:05;;;;;;;12.48;6.15;;;;;;;7.69;76.41;96388.19;2080387;28;20050;-58
2023/05/25 03:15:10;;;;;;;13.70;6.47;;;;;;;7.69;76.54;96388.19;2080504;28;20057;-58
2023/05/25 03:16:11;;;;;;;15.45;6.85;;;;;;;7.72;76.25;96391.56;2079954;28;20053;-58
2023/05/25 03:17:12;;;;;;;14.20;6.32;;;;;;;7.68;76.31;96384.75;2080033;28;20048;-58
2023/05/25 03:18:14;;;;;;;12.25;6.45;;;;;;;7.79;76.45;96399.13;2080620;28;20283;-58
2023/05/25 03:19:15;;;;;;;13.75;6.65;;;;;;;7.85;76.29;96391.16;2080463;28;20045;-58
2023/05/25 03:20:16;;;;;;;17.15;6.78;;;;;;;7.95;75.80;96392.59;2080323;28;20064;-58
2023/05/25 03:21:23;;;;;;;14.68;6.45;;;;;;;7.86;75.44;96377.38;2080569;28;20053;-58
2023/05/25 03:22:25;;;;;;;19.58;6.75;;;;;;;7.90;75.65;96391.88;2081194;28;20397;-57
2023/05/25 03:23:26;;;;;;;16.50;6.50;;;;;;;7.94;76.34;96391.75;2089923;28;20068;-58
2023/05/25 03:24:30;;;;;;;13.43;6.68;;;;;;;7.93;76.33;96389.19;2090290;28;20433;-58
2023/05/25 03:25:34;;;;;;;12.98;6.45;;;;;;;7.98;76.03;96391.66;2081912;28;20072;-58
2023/05/25 03:26:37;;;;;;;16.27;7.25;;;;;;;8.02;75.52;96388.94;2081632;28;20057;-58
2023/05/25 03:27:40;;;;;;;15.43;6.68;;;;;;;8.01;75.57;96391.56;2089669;28;20057;-58
2023/05/25 03:28:42;;;;;;;15.13;6.53;;;;;;;8.00;75.40;96395.88;2082158;28;20072;-58
2023/05/25 03:29:43;;;;;;;15.48;6.78;;;;;;;7.95;75.72;96393.44;2090520;28;20056;-58
2023/05/25 03:30:44;;;;;;;14.15;6.88;;;;;;;7.84;76.03;96376.56;2090508;28;20044;-58
2023/05/25 03:31:46;;;;;;;15.18;6.90;;;;;;;7.92;75.77;96397.84;2081936;28;20060;-58
2023/05/25 03:32:47;;;;;;;16.30;6.55;;;;;;;7.85;75.39;96389.41;2082021;28;20060;-58
2023/05/25 03:33:48;;;;;;;16.95;6.50;;;;;;;7.81;76.13;96385.25;2081624;28;20049;-57
2023/05/25 03:34:50;;;;;;;14.77;7.25;;;;;;;7.81;77.00;96387.84;2082066;28;20049;-58
2023/05/25 03:35:52;;;;;;;13.63;6.85;;;;;;;7.80;77.06;96391.28;2082061;28;20072;-58
2023/05/25 03:36:53;;;;;;;15.52;7.00;;;;;;;7.81;76.77;96387.84;2090524;28;20032;-58
2023/05/25 03:37:54;;;;;;;14.00;6.78;;;;;;;7.76;76.76;96387.13;2099364;28;20419;-58
2023/05/25 03:38:56;;;;;;;14.65;6.82;;;;;;;7.73;77.20;96393.22;2090592;28;20045;-58
2023/05/25 03:39:57;;;;;;;23.15;7.18;;;;;;;7.71;77.11;96391.59;2089684;28;20059;-58
2023/05/25 03:40:58;;;;;;;16.73;8.10;;;;;;;7.73;77.29;96388.06;2089851;28;20491;-58
2023/05/25 03:42:00;;;;;;;19.23;7.63;;;;;;;7.63;77.61;96384.06;2081410;28;20045;-58
2023/05/25 03:43:01;;;;;;;14.40;7.05;;;;;;;7.69;77.61;96398.53;2081750;28;20064;-58
2023/05/25 03:44:02;;;;;;;13.75;6.57;;;;;;;7.65;77.97;96394.34;2081659;28;20116;-58
2023/05/25 03:45:04;;;;;;;16.85;6.93;;;;;;;7.61;77.96;96397.91;2081256;28;20053;-57
2023/05/25 03:46:05;;;;;;;13.93;6.97;;;;;;;7.64;77.96;96396.06;2081832;28;20064;-58
2023/05/25 03:47:06;;;;;;;15.98;7.50;;;;;;;7.71;77.79;96400.19;2089668;28;20055;-58
2023/05/25 03:48:07;;;;;;;17.30;7.43;;;;;;;7.68;78.35;96392.53;2089577;28;20416;-58
2023/05/25 03:49:12;;;;;;;13.70;7.03;;;;;;;7.69;77.97;96393.34;2089857;28;20064;-58
2023/05/25 03:50:13;;;;;;;18.50;7.40;;;;;;;7.73;78.71;96392.41;2082289;28;20076;-58
2023/05/25 03:51:16;;;;;;;21.48;7.95;;;;;;;7.77;78.28;96393.97;2082291;28;20064;-58
2023/05/25 03:52:17;;;;;;;16.63;7.55;;;;;;;7.81;78.49;96397.34;2081640;28;20378;-58
2023/05/25 03:53:18;;;;;;;13.88;7.28;;;;;;;7.94;77.96;96396.06;2081914;28;20060;-58
2023/05/25 03:54:19;;;;;;;19.88;7.88;;;;;;;8.02;78.20;96399.28;2081502;28;20049;-58
2023/05/25 03:55:22;;;;;;;15.50;7.32;;;;;;;8.08;77.39;96393.91;2082036;28;20466;-58
2023/05/25 03:56:23;;;;;;;17.42;7.68;;;;;;;8.21;77.47;96402.13;2090165;28;20041;-58
2023/05/25 03:57:24;;;;;;;14.63;7.20;;;;;;;8.31;77.06;96400.09;2090280;28;20036;-58
2023/05/25 03:58:26;;;;;;;16.33;7.30;;;;;;;8.34;77.09;96389.63;2081732;28;20095;-58
2023/05/25 03:59:27;;;;;;;15.10;7.05;;;;;;;8.38;76.38;96394.66;2089762;28;20480;-58
2023/05/25 04:00:28;;;;;;;16.13;7.72;;;;;;;8.44;76.52;96387.63;2090208;28;20057;-58
2023/05/25 04:01:29;;;;;;;16.08;7.55;;;;;;;8.50;76.40;96392.59;2090265;28;20045;-58
2023/05/25 04:02:31;;;;;;;19.75;7.28;;;;;;;8.56;75.87;96401.03;2089593;28;20061;-58
2023/05/25 04:03:32;;;;;;;17.60;7.32;;;;;;;8.64;76.32;96392.19;2089580;28;20065;-58
2023/05/25 04:04:34;;;;;;;16.92;7.22;;;;;;;8.63;76.09;96393.06;2099091;28;20048;-58
2023/05/25 04:05:35;;;;;;;13.93;7.60;;;;;;;8.59;75.81;96374.19;2089438;28;20057;-58
2023/05/25 04:06:37;;;;;;;12.18;7.20;;;;;;;8.67;75.67;96392.91;2089381;28;20064;-58
2023/05/25 04:07:39;;;;;;;18.30;7.55;;;;;;;8.66;76.33;96388.63;2089561;28;20108;-58
2023/05/25 04:08:40;;;;;;;16.10;7.40;;;;;;;8.64;76.00;96387.00;2081361;28;20058;-58
2023/05/25 04:09:41;;;;;;;21.40;7.43;;;;;;;8.56;75.92;96367.38;2081703;28;20083;-58
2023/05/25 04:10:46;;;;;;;16.58;8.30;;;;;;;8.80;75.52;96393.34;2089627;28;20049;-57
2023/05/25 04:11:47;;;;;;;13.63;8.20;;;;;;;8.74;75.01;96378.88;2082203;28;20428;-58
2023/05/25 04:12:50;;;;;;;17.73;7.35;;;;;;;8.75;75.37;96390.91;2089628;28;20052;-58
2023/05/25 04:13:51;;;;;;;17.42;7.28;;;;;;;8.76;75.54;96396.94;2081339;28;20452;-58
2023/05/25 04:14:52;;;;;;;17.27;8.70;;;;;;;8.86;75.67;96398.31;2081354;28;20104;-58
2023/05/25 04:15:54;;;;;;;16.45;8.38;;;;;;;8.89;75.48;96395.63;2090220;28;20056;-58
2023/05/25 04:16:59;;;;;;;16.85;7.90;;;;;;;8.90;75.73;96399.91;2073706;28;20050;-58
2023/05/25 04:18:01;;;;;;;12.40;7.35;;;;;;;8.91;75.95;96395.56;2081784;28;20049;-58
2023/05/25 04:19:03;;;;;;;16.55;7.95;;;;;;;8.88;76.04;96393.94;2081057;28;20541;-58
2023/05/25 04:20:07;;;;;;;14.68;7.18;;;;;;;8.90;75.94;96402.50;2090241;28;20049;-58
2023/05/25 04:21:08;;;;;;;16.90;8.00;;;;;;;8.96;75.45;96398.84;2089685;28;20061;-58
2023/05/25 04:22:09;;;;;;;17.45;8.15;;;;;;;8.97;76.02;96403.13;2081462;28;20489;-58
2023/05/25 04:23:10;;;;;;;16.10;7.72;;;;;;;9.00;76.20;96397.84;2090056;28;20053;-58
2023/05/25 04:24:13;;;;;;;15.07;7.90;;;;;;;9.07;75.70;96406.25;2089401;28;20508;-58
2023/05/25 04:25:15;;;;;;;16.70;8.18;;;;;;;9.08;75.62;96402.75;2089915;28;20047;-58
2023/05/25 04:26:17;;;;;;;13.35;8.13;;;;;;;9.10;75.80;96406.16;2089026;28;20053;-58
2023/05/25 04:27:19;;;;;;;17.08;7.90;;;;;;;9.11;75.46;96411.25;2081902;28;20053;-58
2023/05/25 04:28:21;;;;;;;16.85;8.27;;;;;;;9.12;75.62;96409.53;2089279;28;20513;-58
2023/05/25 04:29:43;;;;;;;19.02;8.05;;;;;;;9.13;75.66;96411.22;2075627;28;20176;-58
2023/05/25 04:31:04;;;;;;;14.57;7.40;;;;;;;9.09;76.14;96409.63;2081336;28;20413;-58
2023/05/25 04:32:23;;;;;;;14.40;8.05;;;;;;;9.03;75.99;96396.00;2083765;28;20057;-58
2023/05/25 04:33:28;;;;;;;19.17;8.07;;;;;;;9.13;75.45;96403.44;2081490;28;20129;-57
2023/05/25 04:34:36;;;;;;;17.95;8.30;;;;;;;9.14;75.43;96410.31;2092738;28;20052;-58
2023/05/25 04:35:49;;;;;;;17.05;8.25;;;;;;;9.21;76.07;96411.78;2082916;28;20099;-58
2023/05/25 04:36:51;;;;;;;13.27;8.27;;;;;;;9.16;75.90;96408.50;2081960;28;20090;-58
2023/05/25 04:37:55;;;;;;;17.88;8.57;;;;;;;9.18;75.79;96410.16;2081683;28;20053;-58
2023/05/25 04:39:01;;;;;;;19.52;9.05;;;;;;;9.19;75.79;96409.25;2081637;28;20457;-58
2023/05/25 04:40:09;;;;;;;16.15;8.60;;;;;;;9.22;75.94;96411.75;2081412;28;20464;-58
2023/05/25 04:41:10;;;;;;;15.13;8.15;;;;;;;9.28;75.30;96410.69;2074761;28;20053;-58
2023/05/25 04:42:12;;;;;;;17.80;7.90;;;;;;;9.34;75.92;96410.47;2081182;28;20045;-58
2023/05/25 04:43:17;;;;;;;17.90;9.25;;;;;;;9.35;76.38;96414.72;2080825;28;20046;-58
2023/05/25 04:44:18;;;;;;;15.68;8.00;;;;;;;9.36;75.32;96403.47;2081878;28;20056;-58
2023/05/25 04:45:22;;;;;;;20.05;8.50;;;;;;;9.39;75.43;96398.19;2089293;28;20386;-58
2023/05/25 04:46:25;;;;;;;21.60;8.95;;;;;;;9.48;74.83;96413.38;2081123;28;20057;-58
2023/05/25 04:47:26;;;;;;;18.33;8.57;;;;;;;9.48;74.83;96412.56;2089502;28;20069;-57
2023/05/25 04:48:31;;;;;;;20.30;7.88;;;;;;;9.48;74.99;96415.16;2089112;28;20049;-58
2023/05/25 04:49:32;;;;;;;19.35;8.88;;;;;;;9.43;74.83;96402.34;2090159;28;20052;-57
2023/05/25 04:50:33;;;;;;;18.60;8.88;;;;;;;9.57;74.96;96420.00;2098573;28;20456;-58
2023/05/25 04:51:35;;;;;;;22.52;9.40;;;;;;;9.54;75.13;96414.91;2088817;28;20064;-58
2023/05/25 04:52:37;;;;;;;19.58;9.45;;;;;;;9.61;75.54;96410.38;2081166;28;20057;-58
2023/05/25 04:53:38;;;;;;;17.20;8.95;;;;;;;9.62;75.35;96417.22;2081333;28;20049;-58
2023/05/25 04:54:40;;;;;;;16.55;8.63;;;;;;;9.64;75.00;96412.84;2089232;28;20148;-58
2023/05/25 04:55:42;;;;;;;17.17;8.82;;;;;;;9.70;74.47;96410.88;2089550;28;20053;-58